createdAt,value
2019-05-11T00:01:34.022Z,99961.20
2019-05-11T00:04:02.440Z,99954.39
2019-05-11T00:06:30.949Z,99954.07
2019-05-11T00:08:59.459Z,99936.88
2019-05-11T00:11:28.057Z,99929.65
2019-05-11T00:13:56.483Z,99921.84
2019-05-11T00:16:25.074Z,99916.64
2019-05-11T00:18:53.420Z,99908.48
2019-05-11T00:21:22.140Z,99910.61
2019-05-11T00:23:50.548Z,99912.48
2019-05-11T00:26:19.030Z,99907.59
2019-05-11T00:28:47.511Z,99910.94
2019-05-11T00:31:16.038Z,99907.75
2019-05-11T00:33:44.463Z,99905.83
2019-05-11T00:36:12.907Z,99892.97
2019-05-11T00:38:41.358Z,99884.91
2019-05-11T00:41:09.889Z,99871.41
2019-05-11T00:43:38.296Z,99865.48
2019-05-11T00:46:06.727Z,99861.28
2019-05-11T00:48:35.270Z,99867.51
2019-05-11T00:51:03.677Z,99872.66
2019-05-11T00:53:32.550Z,99873.21
2019-05-11T00:56:01.095Z,99865.17
2019-05-11T00:58:29.537Z,99858.59
2019-05-11T01:00:57.946Z,99848.85
2019-05-11T01:03:26.440Z,99841.03
2019-05-11T01:05:54.896Z,99842.95
2019-05-11T01:08:23.313Z,99838.95
2019-05-11T01:10:51.706Z,99832.25
2019-05-11T01:13:20.245Z,99823.17
2019-05-11T01:15:48.783Z,99817.53
2019-05-11T01:18:17.164Z,99821.36
2019-05-11T01:20:45.775Z,99810.83
2019-05-11T01:23:14.204Z,99822.18
2019-05-11T01:25:42.632Z,99829.23
2019-05-11T01:28:11.138Z,99817.69
2019-05-11T01:30:39.569Z,99821.26
2019-05-11T01:33:08.111Z,99810.67
2019-05-11T01:35:36.641Z,99782.06
2019-05-11T01:38:05.092Z,99777.00
2019-05-11T01:40:33.525Z,99776.84
2019-05-11T01:43:01.936Z,99772.84
2019-05-11T01:45:30.354Z,99767.83
2019-05-11T01:47:58.866Z,99763.01
2019-05-11T01:50:27.356Z,99743.82
2019-05-11T01:52:55.769Z,99731.10
2019-05-11T01:55:24.447Z,99740.95
2019-05-11T01:57:52.857Z,99745.56
2019-05-11T02:00:21.503Z,99746.44
2019-05-11T02:02:49.937Z,99738.39
2019-05-11T02:05:30.793Z,99730.46
2019-05-11T02:08:01.275Z,99720.89
2019-05-11T02:10:31.473Z,99710.91
2019-05-11T02:13:00.006Z,99715.41
2019-05-11T02:15:28.498Z,99701.00
2019-05-11T02:17:56.966Z,99704.83
2019-05-11T02:20:25.509Z,99718.23
2019-05-11T02:22:53.965Z,99723.63
2019-05-11T02:25:22.469Z,99732.22
2019-05-11T02:27:50.898Z,99730.53
2019-05-11T02:30:19.766Z,99718.31
2019-05-11T02:32:48.249Z,99712.76
2019-05-11T02:35:16.714Z,99711.41
2019-05-11T02:37:45.231Z,99716.53
2019-05-11T02:40:14.249Z,99698.42
2019-05-11T02:42:42.703Z,99714.06
2019-05-11T02:45:11.751Z,99725.29
2019-05-11T02:47:40.377Z,99718.91
2019-05-11T02:50:08.915Z,99722.55
2019-05-11T02:52:38.357Z,99714.42
2019-05-11T02:55:07.133Z,99709.75
2019-05-11T02:57:37.518Z,99710.86
2019-05-11T03:00:09.245Z,99694.70
2019-05-11T03:02:37.680Z,99695.55
2019-05-11T03:05:08.001Z,99693.98
2019-05-11T03:07:36.434Z,99690.81
2019-05-11T03:10:05.847Z,99671.94
2019-05-11T03:12:34.241Z,99671.42
2019-05-11T03:15:02.682Z,99666.19
2019-05-11T03:17:32.765Z,99665.69
2019-05-11T03:20:01.136Z,99665.37
2019-05-11T03:22:29.634Z,99653.96
2019-05-11T03:24:58.114Z,99650.32
2019-05-11T03:27:26.615Z,99657.80
2019-05-11T03:29:59.936Z,99661.88
2019-05-11T03:32:25.298Z,99658.37
2019-05-11T03:34:53.799Z,99666.53
2019-05-11T03:37:22.239Z,99669.27
2019-05-11T03:39:50.746Z,99666.05
2019-05-11T03:42:19.191Z,99652.67
2019-05-11T03:44:47.750Z,99636.30
2019-05-11T03:47:16.201Z,99644.41
2019-05-11T03:49:44.793Z,99632.81
2019-05-11T03:52:13.210Z,99626.38
2019-05-11T03:54:41.656Z,99628.70
2019-05-11T03:57:10.053Z,99616.23
2019-05-11T03:59:38.479Z,99614.34
2019-05-11T04:02:06.999Z,99620.14
2019-05-11T04:04:35.508Z,99622.04
2019-05-11T04:07:04.026Z,99614.52
2019-05-11T04:09:32.452Z,99605.27
2019-05-11T04:12:00.883Z,99613.23
2019-05-11T04:14:29.297Z,99604.20
2019-05-11T04:16:57.732Z,99605.42
2019-05-11T04:19:26.140Z,99603.95
2019-05-11T04:21:54.523Z,99608.91
2019-05-11T04:24:22.938Z,99616.98
2019-05-11T04:26:51.374Z,99627.97
2019-05-11T04:29:19.860Z,99616.78
2019-05-11T04:31:48.362Z,99611.94
2019-05-11T04:34:16.805Z,99620.72
2019-05-11T04:36:45.235Z,99621.75
2019-05-11T04:39:13.724Z,99618.57
2019-05-11T04:41:42.164Z,99619.32
2019-05-11T04:44:10.561Z,99613.09
2019-05-11T04:46:39.038Z,99618.39
2019-05-11T04:49:07.427Z,99612.20
2019-05-11T04:51:35.841Z,99614.25
2019-05-11T04:54:04.429Z,99608.03
2019-05-11T04:56:33.098Z,99605.90
2019-05-11T04:59:01.516Z,99611.27
2019-05-11T05:01:29.999Z,99612.84
2019-05-11T05:04:13.580Z,99613.85
2019-05-11T05:06:28.533Z,99612.04
2019-05-11T05:08:58.119Z,99614.13
2019-05-11T05:11:30.612Z,99611.03
2019-05-11T05:14:01.883Z,99619.16
2019-05-11T05:16:31.196Z,99612.61
2019-05-11T05:18:57.745Z,99612.54
2019-05-11T05:21:26.181Z,99621.34
2019-05-11T05:23:54.589Z,99623.66
2019-05-11T05:26:23.079Z,99625.79
2019-05-11T05:28:51.533Z,99623.42
2019-05-11T05:31:19.943Z,99624.41
2019-05-11T05:33:48.347Z,99624.71
2019-05-11T05:36:16.776Z,99621.73
2019-05-11T05:38:45.186Z,99631.22
2019-05-11T05:41:13.617Z,99632.53
2019-05-11T05:43:42.015Z,99630.45
2019-05-11T05:46:10.545Z,99631.70
2019-05-11T05:48:38.956Z,99619.76
2019-05-11T05:51:07.397Z,99624.63
2019-05-11T05:53:35.845Z,99618.75
2019-05-11T05:56:04.288Z,99617.48
2019-05-11T05:58:32.804Z,99619.79
2019-05-11T06:01:01.181Z,99624.66
2019-05-11T06:03:29.630Z,99623.22
2019-05-11T06:05:58.067Z,99628.48
2019-05-11T06:08:26.490Z,99624.75
2019-05-11T06:10:55.009Z,99623.90
2019-05-11T06:13:23.453Z,99627.03
2019-05-11T06:15:51.998Z,99623.22
2019-05-11T06:18:20.518Z,99622.27
2019-05-11T06:20:48.976Z,99618.31
2019-05-11T06:23:17.415Z,99615.92
2019-05-11T06:25:45.855Z,99625.73
2019-05-11T06:28:14.308Z,99624.11
2019-05-11T06:30:42.721Z,99627.80
2019-05-11T06:33:11.236Z,99624.77
2019-05-11T06:35:39.642Z,99626.06
2019-05-11T06:38:08.188Z,99624.23
2019-05-11T06:40:36.620Z,99632.66
2019-05-11T06:43:05.210Z,99625.36
2019-05-11T06:45:33.661Z,99620.97
2019-05-11T06:48:02.094Z,99622.33
2019-05-11T06:50:30.522Z,99624.14
2019-05-11T06:52:58.937Z,99621.33
2019-05-11T06:55:27.455Z,99614.34
2019-05-11T06:57:55.885Z,99616.62
2019-05-11T07:00:24.587Z,99619.97
2019-05-11T07:02:53.000Z,99614.71
2019-05-11T07:05:21.454Z,99613.27
2019-05-11T07:07:49.896Z,99603.63
2019-05-11T07:10:18.481Z,99602.83
2019-05-11T07:12:46.943Z,99603.85
2019-05-11T07:15:15.550Z,99605.13
2019-05-11T07:17:43.921Z,99604.06
2019-05-11T07:20:12.712Z,99594.61
2019-05-11T07:22:41.160Z,99599.98
2019-05-11T07:25:09.815Z,99604.91
2019-05-11T07:27:38.351Z,99599.52
2019-05-11T07:30:07.296Z,99598.21
2019-05-11T07:32:38.201Z,99596.98
2019-05-11T07:35:08.431Z,99600.41
2019-05-11T07:37:38.560Z,99596.97
2019-05-11T07:40:08.266Z,99593.42
2019-05-11T07:42:38.032Z,99605.75
2019-05-11T07:45:09.063Z,99631.64
2019-05-11T07:47:38.132Z,99626.05
2019-05-11T07:50:08.455Z,99626.70
2019-05-11T07:52:37.866Z,99617.45
2019-05-11T07:55:08.586Z,99645.58
2019-05-11T07:57:39.052Z,99645.95
2019-05-11T08:00:08.107Z,99642.09
2019-05-11T08:02:38.728Z,99651.20
2019-05-11T08:05:08.661Z,99653.69
2019-05-11T08:07:37.911Z,99652.85
2019-05-11T08:10:08.185Z,99657.63
2019-05-11T08:12:39.195Z,99658.72
2019-05-11T08:15:12.992Z,99659.33
2019-05-11T08:17:38.431Z,99664.14
2019-05-11T08:20:08.407Z,99662.42
2019-05-11T08:22:37.703Z,99668.66
2019-05-11T08:25:09.252Z,99676.26
2019-05-11T08:27:38.006Z,99684.96
2019-05-11T08:30:09.981Z,99681.67
2019-05-11T08:32:38.754Z,99684.94
2019-05-11T08:35:09.038Z,99687.79
2019-05-11T08:37:38.750Z,99688.40
2019-05-11T08:40:08.087Z,99680.34
2019-05-11T08:42:37.822Z,99671.15
2019-05-11T08:45:19.518Z,99691.58
2019-05-11T08:47:37.712Z,99695.98
2019-05-11T08:50:08.159Z,99692.11
2019-05-11T08:52:38.626Z,99724.89
2019-05-11T08:55:08.404Z,99729.92
2019-05-11T08:57:38.743Z,99725.63
2019-05-11T09:00:10.164Z,99730.23
2019-05-11T09:02:38.587Z,99722.47
2019-05-11T09:05:08.296Z,99730.73
2019-05-11T09:07:38.370Z,99733.04
2019-05-11T09:10:08.135Z,99742.29
2019-05-11T09:12:38.289Z,99743.88
2019-05-11T09:15:08.707Z,99741.08
2019-05-11T09:17:38.134Z,99748.21
2019-05-11T09:20:08.681Z,99748.47
2019-05-11T09:22:38.090Z,99763.13
2019-05-11T09:25:08.986Z,99764.20
2019-05-11T09:27:37.774Z,99771.27
2019-05-11T09:30:08.355Z,99764.41
2019-05-11T09:32:38.521Z,99776.52
2019-05-11T09:35:08.289Z,99777.28
2019-05-11T09:37:38.049Z,99780.52
2019-05-11T09:40:07.851Z,99793.30
2019-05-11T09:42:38.676Z,99780.30
2019-05-11T09:45:08.164Z,99791.36
2019-05-11T09:47:38.591Z,99782.56
2019-05-11T09:50:08.686Z,99781.80
2019-05-11T09:52:38.532Z,99780.41
2019-05-11T09:55:08.858Z,99776.66
2019-05-11T09:57:38.170Z,99778.88
2019-05-11T10:00:09.068Z,99780.77
2019-05-11T10:02:38.489Z,99783.13
2019-05-11T10:05:08.420Z,99791.75
2019-05-11T10:07:38.040Z,99786.77
2019-05-11T10:10:09.277Z,99786.93
2019-05-11T10:12:40.674Z,99801.70
2019-05-11T10:15:09.753Z,99796.22
2019-05-11T10:17:38.538Z,99798.09
2019-05-11T10:20:09.163Z,99802.45
2019-05-11T10:22:38.593Z,99799.48
2019-05-11T10:25:08.896Z,99811.51
2019-05-11T10:27:38.372Z,99820.53
2019-05-11T10:30:11.438Z,99832.36
2019-05-11T10:32:40.715Z,99843.73
2019-05-11T10:35:09.397Z,99857.16
2019-05-11T10:37:38.955Z,99859.91
2019-05-11T10:40:09.587Z,99845.52
2019-05-11T10:42:38.228Z,99823.89
2019-05-11T10:45:09.147Z,99841.41
2019-05-11T10:47:38.344Z,99844.45
2019-05-11T10:50:08.573Z,99845.73
2019-05-11T10:52:37.981Z,99856.12
2019-05-11T10:55:08.701Z,99844.45
2019-05-11T10:57:38.668Z,99851.76
2019-05-11T11:00:11.140Z,99860.65
2019-05-11T11:02:39.554Z,99852.80
2019-05-11T11:05:08.369Z,99851.47
2019-05-11T11:07:38.453Z,99852.05
2019-05-11T11:10:08.838Z,99843.19
2019-05-11T11:12:38.469Z,99846.77
2019-05-11T11:15:07.952Z,99854.62
2019-05-11T11:17:38.310Z,99846.60
2019-05-11T11:20:08.710Z,99863.48
2019-05-11T11:22:43.406Z,99854.27
2019-05-11T11:25:08.032Z,99859.48
2019-05-11T11:27:38.095Z,99879.55
2019-05-11T11:30:09.194Z,99882.53
2019-05-11T11:32:38.333Z,99900.76
2019-05-11T11:35:08.516Z,99881.53
2019-05-11T11:37:38.726Z,99897.22
2019-05-11T11:40:10.689Z,99891.61
2019-05-11T11:42:39.180Z,99894.43
2019-05-11T11:45:09.741Z,99887.91
2019-05-11T11:47:38.590Z,99896.25
2019-05-11T11:50:09.114Z,99900.80
2019-05-11T11:52:38.411Z,99899.42
2019-05-11T11:55:08.702Z,99906.69
2019-05-11T11:57:37.978Z,99912.25
2019-05-11T12:00:09.054Z,99928.17
2019-05-11T12:02:38.784Z,99929.27
2019-05-11T12:05:08.812Z,99939.47
2019-05-11T12:07:38.656Z,99948.13
2019-05-11T12:10:09.060Z,99953.42
2019-05-11T12:12:38.637Z,99964.44
2019-05-11T12:15:08.826Z,99971.17
2019-05-11T12:17:37.859Z,99978.10
2019-05-11T12:20:08.990Z,99974.55
2019-05-11T12:22:38.614Z,99973.05
2019-05-11T12:25:07.914Z,99966.67
2019-05-11T12:27:38.336Z,99975.83
2019-05-11T12:30:09.068Z,99981.25
2019-05-11T12:32:41.958Z,99980.85
2019-05-11T12:35:10.460Z,99989.34
2019-05-11T12:37:38.893Z,99989.98
2019-05-11T12:40:08.555Z,99991.52
2019-05-11T12:42:37.974Z,99995.69
2019-05-11T12:45:08.579Z,100003.66
2019-05-11T12:47:38.520Z,100013.41
2019-05-11T12:50:09.417Z,100016.54
2019-05-11T12:52:38.407Z,100020.51
2019-05-11T12:55:08.843Z,100021.36
2019-05-11T12:57:38.552Z,100010.42
2019-05-11T13:00:08.769Z,100018.75
2019-05-11T13:02:38.774Z,100021.73
2019-05-11T13:05:08.625Z,100030.69
2019-05-11T13:07:39.213Z,100041.20
2019-05-11T13:10:08.391Z,100052.37
2019-05-11T13:12:38.592Z,100058.36
2019-05-11T13:15:08.302Z,100068.05
2019-05-11T13:17:38.332Z,100075.77
2019-05-11T13:20:08.641Z,100090.02
2019-05-11T13:22:38.150Z,100098.20
2019-05-11T13:25:08.546Z,100111.27
2019-05-11T13:27:38.727Z,100118.05
2019-05-11T13:30:10.697Z,100122.68
2019-05-11T13:32:39.136Z,100131.14
2019-05-11T13:35:09.203Z,100139.81
2019-05-11T13:37:38.611Z,100138.67
2019-05-11T13:40:08.057Z,100145.27
2019-05-11T13:42:38.621Z,100149.39
2019-05-11T13:45:08.513Z,100140.11
2019-05-11T13:47:49.378Z,100151.16
2019-05-11T13:50:07.920Z,100142.99
2019-05-11T13:52:38.441Z,100149.10
2019-05-11T13:55:07.971Z,100147.15
2019-05-11T13:57:38.071Z,100153.82
2019-05-11T14:00:08.605Z,100158.81
2019-05-11T14:02:37.981Z,100164.42
2019-05-11T14:05:09.875Z,100166.20
2019-05-11T14:07:38.465Z,100173.25
2019-05-11T14:10:08.182Z,100187.08
2019-05-11T14:12:38.556Z,100194.16
2019-05-11T14:15:09.109Z,100201.66
2019-05-11T14:17:38.099Z,100208.86
2019-05-11T14:20:09.262Z,100211.36
2019-05-11T14:22:38.770Z,100212.69
2019-05-11T14:25:08.141Z,100222.47
2019-05-11T14:27:38.865Z,100225.17
2019-05-11T14:30:08.776Z,100228.80
2019-05-11T14:32:38.953Z,100229.20
2019-05-11T14:35:12.131Z,100235.00
2019-05-11T14:37:38.144Z,100248.98
2019-05-11T14:40:08.737Z,100252.78
2019-05-11T14:42:38.191Z,100259.47
2019-05-11T14:45:08.554Z,100276.65
2019-05-11T14:47:38.613Z,100278.78
2019-05-11T14:50:08.638Z,100283.77
2019-05-11T14:52:38.808Z,100284.61
2019-05-11T14:55:08.290Z,100285.77
2019-05-11T14:57:39.362Z,100303.70
2019-05-11T15:00:08.424Z,100302.09
2019-05-11T15:02:48.578Z,100325.20
2019-05-11T15:05:20.363Z,100330.17
2019-05-11T15:07:51.675Z,100337.67
2019-05-11T15:10:19.398Z,100347.63
2019-05-11T15:12:48.934Z,100350.66
2019-05-11T15:15:18.692Z,100353.35
2019-05-11T15:17:49.212Z,100359.84
2019-05-11T15:20:17.930Z,100356.63
2019-05-11T15:22:48.663Z,100370.31
2019-05-11T15:25:19.427Z,100355.82
2019-05-11T15:27:48.754Z,100368.00
2019-05-11T15:30:18.311Z,100371.50
2019-05-11T15:32:48.164Z,100371.49
2019-05-11T15:35:18.531Z,100381.01
2019-05-11T15:37:48.137Z,100377.00
2019-05-11T15:40:21.396Z,100375.69
2019-05-11T15:42:49.798Z,100381.66
2019-05-11T15:45:19.143Z,100386.48
2019-05-11T15:47:48.728Z,100376.34
2019-05-11T15:50:19.017Z,100369.04
2019-05-11T15:52:48.835Z,100377.67
2019-05-11T15:55:18.795Z,100380.36
2019-05-11T15:57:48.321Z,100385.67
2019-05-11T16:00:17.605Z,100384.02
2019-05-11T16:02:48.686Z,100390.86
2019-05-11T16:05:18.329Z,100398.02
2019-05-11T16:07:49.277Z,100414.65
2019-05-11T16:10:18.753Z,100418.65
2019-05-11T16:12:48.631Z,100433.30
2019-05-11T16:15:19.280Z,100443.61
2019-05-11T16:17:48.719Z,100450.09
2019-05-11T16:22:54.173Z,100460.52
2019-05-11T16:25:22.606Z,100458.69
2019-05-11T16:27:51.021Z,100464.17
2019-05-11T16:30:21.517Z,100462.49
2019-05-11T16:32:50.275Z,100476.16
2019-05-11T16:35:19.232Z,100491.78
2019-05-11T16:37:48.680Z,100506.73
2019-05-11T16:40:20.621Z,100525.98
2019-05-11T16:42:48.069Z,100538.98
2019-05-11T16:45:18.942Z,100555.25
2019-05-11T16:47:48.319Z,100560.11
2019-05-11T16:50:18.051Z,100579.80
2019-05-11T16:52:48.233Z,100582.05
2019-05-11T16:55:18.459Z,100589.50
2019-05-11T16:57:48.300Z,100594.25
2019-05-11T17:00:17.742Z,100597.48
2019-05-11T17:02:48.653Z,100604.77
2019-05-11T17:05:25.876Z,100610.44
2019-05-11T17:07:48.329Z,100615.57
2019-05-11T17:10:17.837Z,100619.07
2019-05-11T17:12:48.469Z,100623.73
2019-05-11T17:15:18.699Z,100628.88
2019-05-11T17:17:48.652Z,100635.37
2019-05-11T17:20:18.754Z,100646.95
2019-05-11T17:22:48.276Z,100648.28
2019-05-11T17:25:19.201Z,100658.92
2019-05-11T17:27:48.781Z,100661.09
2019-05-11T17:30:19.353Z,100670.05
2019-05-11T17:32:49.138Z,100682.08
2019-05-11T17:35:17.854Z,100687.25
2019-05-11T17:37:48.391Z,100694.55
2019-05-11T17:40:20.469Z,100703.06
2019-05-11T17:42:48.071Z,100702.18
2019-05-11T17:45:18.935Z,100712.47
2019-05-11T17:47:47.680Z,100714.84
2019-05-11T17:50:16.156Z,100719.13
2019-05-11T17:52:44.555Z,100726.48
2019-05-11T17:55:13.081Z,100726.91
2019-05-11T17:57:41.679Z,100726.69
2019-05-11T18:00:10.519Z,100726.06
2019-05-11T18:02:39.244Z,100736.51
2019-05-11T18:05:08.956Z,100734.34
2019-05-11T18:07:38.585Z,100738.66
2019-05-11T18:10:08.761Z,100744.27
2019-05-11T18:12:39.106Z,100751.05
2019-05-11T18:15:08.431Z,100752.53
2019-05-11T18:17:36.933Z,100766.17
2019-05-11T18:20:16.842Z,100777.74
2019-05-11T18:22:39.040Z,100782.37
2019-05-11T18:25:08.892Z,100795.35
2019-05-11T18:27:38.752Z,100800.39
2019-05-11T18:30:08.803Z,100811.31
2019-05-11T18:32:39.835Z,100827.90
2019-05-11T18:35:08.633Z,100837.41
2019-05-11T18:37:38.987Z,100848.50
2019-05-11T18:40:08.260Z,100850.81
2019-05-11T18:42:38.261Z,100863.96
2019-05-11T18:45:08.276Z,100872.60
2019-05-11T18:47:38.175Z,100874.59
2019-05-11T18:50:08.529Z,100876.94
2019-05-11T18:52:36.935Z,100892.32
2019-05-11T18:55:08.190Z,100893.84
2019-05-11T18:57:38.224Z,100898.25
2019-05-11T19:00:08.291Z,100896.83
2019-05-11T19:02:38.544Z,100899.72
2019-05-11T19:05:07.309Z,100899.50
2019-05-11T19:07:35.824Z,100911.69
2019-05-11T19:10:08.457Z,100916.58
2019-05-11T19:12:37.675Z,100929.80
2019-05-11T19:15:09.444Z,100946.63
2019-05-11T19:17:38.506Z,100958.05
2019-05-11T19:20:08.548Z,100963.65
2019-05-11T19:22:37.828Z,100972.91
2019-05-11T19:25:09.115Z,100983.44
2019-05-11T19:27:37.895Z,100991.55
2019-05-11T19:30:10.235Z,100996.82
2019-05-11T19:32:38.738Z,101003.34
2019-05-11T19:35:08.962Z,101002.41
2019-05-11T19:37:38.772Z,101006.89
2019-05-11T19:40:09.049Z,101011.10
2019-05-11T19:42:54.779Z,101013.27
2019-05-11T19:45:23.674Z,101013.73
2019-05-11T19:47:52.155Z,101015.47
2019-05-11T19:50:20.634Z,101024.09
2019-05-11T19:52:49.167Z,101033.39
2019-05-11T19:55:18.191Z,101034.86
2019-05-11T19:57:48.197Z,101033.27
2019-05-11T20:00:18.356Z,101041.36
2019-05-11T20:02:47.235Z,101041.55
2019-05-11T20:05:18.184Z,101046.24
2019-05-11T20:07:48.312Z,101048.06
2019-05-11T20:10:18.920Z,101046.19
2019-05-11T20:12:48.446Z,101048.90
2019-05-11T20:15:18.839Z,101050.36
2019-05-11T20:17:48.655Z,101061.16
2019-05-11T20:20:18.359Z,101054.70
2019-05-11T20:22:48.239Z,101064.56
2019-05-11T20:25:18.763Z,101065.84
2019-05-11T20:27:48.275Z,101073.48
2019-05-11T20:30:18.488Z,101078.75
2019-05-11T20:32:48.340Z,101086.84
2019-05-11T20:35:17.547Z,101090.73
2019-05-11T20:37:46.047Z,101090.33
2019-05-11T20:40:14.579Z,101093.82
2019-05-11T20:42:43.028Z,101092.56
2019-05-11T20:45:11.600Z,101096.55
2019-05-11T20:47:40.151Z,101105.84
2019-05-11T20:50:08.948Z,101106.45
2019-05-11T20:52:39.025Z,101108.14
2019-05-11T20:55:08.820Z,101110.28
2019-05-11T20:57:39.299Z,101109.30
2019-05-11T21:00:08.835Z,101100.70
2019-05-11T21:02:38.105Z,101103.86
2019-05-11T21:05:08.990Z,101108.59
2019-05-11T21:07:38.985Z,101114.58
2019-05-11T21:10:08.938Z,101117.02
2019-05-11T21:12:38.516Z,101123.39
2019-05-11T21:15:10.768Z,101131.14
2019-05-11T21:17:39.185Z,101134.80
2019-05-11T21:20:09.149Z,101134.30
2019-05-11T21:22:40.078Z,101135.67
2019-05-11T21:25:09.805Z,101132.41
2019-05-11T21:27:38.707Z,101130.20
2019-05-11T21:30:09.820Z,101130.66
2019-05-11T21:32:40.236Z,101130.91
2019-05-11T21:35:09.434Z,101134.87
2019-05-11T21:37:38.672Z,101138.41
2019-05-11T21:40:10.867Z,101146.73
2019-05-11T21:42:39.435Z,101147.45
2019-05-11T21:45:09.849Z,101152.16
2019-05-11T21:47:39.129Z,101151.86
2019-05-11T21:50:09.234Z,101152.29
2019-05-11T21:52:38.636Z,101149.03
2019-05-11T21:55:09.561Z,101152.70
2019-05-11T21:57:38.312Z,101146.36
2019-05-11T22:00:09.411Z,101148.65
2019-05-11T22:02:38.571Z,101146.84
2019-05-11T22:05:08.164Z,101149.20
2019-05-11T22:07:38.701Z,101157.83
2019-05-11T22:10:09.176Z,101163.77
2019-05-11T22:12:38.837Z,101165.66
2019-05-11T22:15:09.296Z,101169.34
2019-05-11T22:17:39.242Z,101171.63
2019-05-11T22:20:08.896Z,101175.67
2019-05-11T22:22:39.119Z,101173.25
2019-05-11T22:25:08.794Z,101180.06
2019-05-11T22:27:38.704Z,101184.95
2019-05-11T22:30:08.633Z,101186.63
2019-05-11T22:32:38.317Z,101195.97
2019-05-11T22:35:08.156Z,101207.84
2019-05-11T22:37:38.713Z,101208.28
2019-05-11T22:40:08.418Z,101216.13
2019-05-11T22:42:37.153Z,101217.45
2019-05-11T22:45:08.500Z,101214.20
2019-05-11T22:47:39.277Z,101229.05
2019-05-11T22:50:08.354Z,101239.14
2019-05-11T22:52:39.791Z,101236.00
2019-05-11T22:55:08.916Z,101239.62
2019-05-11T22:57:38.123Z,101250.59
2019-05-11T23:00:10.683Z,101249.98
2019-05-11T23:02:39.087Z,101254.67
2019-05-11T23:05:09.005Z,101255.08
2019-05-11T23:07:41.459Z,101252.45
2019-05-11T23:10:11.175Z,101257.80
2019-05-11T23:12:39.735Z,101262.84
2019-05-11T23:15:12.679Z,101268.33
2019-05-11T23:17:41.463Z,101273.06
2019-05-11T23:20:10.504Z,101276.48
2019-05-11T23:22:53.490Z,101271.80
2019-05-11T23:25:10.857Z,101268.84
2019-05-11T23:27:39.446Z,101277.75
2019-05-11T23:30:08.851Z,101279.09
2019-05-11T23:32:37.476Z,101282.71
2019-05-11T23:35:08.337Z,101284.25
2019-05-11T23:37:38.609Z,101278.16
2019-05-11T23:40:09.282Z,101287.64
2019-05-11T23:42:38.246Z,101285.72
2019-05-11T23:45:09.053Z,101295.33
2019-05-11T23:47:39.266Z,101301.35
2019-05-11T23:50:08.677Z,101305.11
2019-05-11T23:52:38.245Z,101312.06
2019-05-11T23:55:08.331Z,101317.87
2019-05-11T23:57:37.963Z,101307.64
